Terminal Aerodrome Forecast
Issued by NWS

Home | Current Version | Previous Version | Text Only | Print | Product List | Glossary Off
Versions: 1 2 3 4 5 6 7 8 9 10 11 12 13

000
FTUS43 KICT 262321
TAFCNU
TAF
KCNU 262321Z 2700/2724 VRB04KT P6SM BKN100
     FM270600 03015G22KT P6SM SCT025 BKN050
     FM271000 02014KT P6SM BKN015=

USA.gov is the U.S. government's official web portal to all federal, state and local government web resources and services.